Time;durP1;ratioP1;P1;durP2;ratioP2;P2;SDS_P1;SDS_P2;PMS_P1;PMS_P2;Temp;Humidity;BMP_temperature;BMP_pressure;BME280_temperature;BME280_humidity;BME280_pressure;Samples;Min_cycle;Max_cycle;Signal;HPM_P1;HPM_P2
2022/06/10 00:00:53;;;;;;;6.90;3.55;;;;;;;8.46;85.40;94494.75;5054275;28;20043;-60
2022/06/10 00:03:23;;;;;;;6.68;4.32;;;;;;;8.49;84.89;94504.13;5072462;28;20051;-59
2022/06/10 00:05:52;;;;;;;8.47;4.20;;;;;;;8.17;86.51;94496.59;5071640;28;20044;-63
2022/06/10 00:08:22;;;;;;;8.48;3.78;;;;;;;8.09;87.63;94495.78;5072588;28;20403;-65
2022/06/10 00:10:50;;;;;;;30.77;15.70;;;;;;;8.23;86.49;94500.53;5071859;28;20055;-59
2022/06/10 00:13:19;;;;;;;7.47;4.35;;;;;;;8.29;85.90;94501.72;5053747;28;20422;-59
2022/06/10 00:15:46;;;;;;;6.25;4.10;;;;;;;8.34;85.62;94500.53;5068615;28;20101;-64
2022/06/10 00:18:15;;;;;;;10.13;5.20;;;;;;;8.28;85.10;94505.59;5072270;28;20060;-64
2022/06/10 00:20:44;;;;;;;8.60;5.90;;;;;;;8.24;85.30;94504.03;5079442;28;20113;-64
2022/06/10 00:23:10;;;;;;;6.32;4.50;;;;;;;8.25;85.63;94502.84;5092323;28;20040;-60
2022/06/10 00:25:38;;;;;;;9.75;4.93;;;;;;;8.24;85.09;94510.28;5092468;28;20050;-57
2022/06/10 00:28:07;;;;;;;7.93;4.20;;;;;;;8.15;85.82;94510.66;5091863;28;20044;-59
2022/06/10 00:30:35;;;;;;;7.27;4.20;;;;;;;8.11;85.08;94507.13;5066253;28;20055;-57
2022/06/10 00:33:03;;;;;;;5.57;3.40;;;;;;;7.98;85.49;94509.41;5051612;28;20075;-60
2022/06/10 00:35:31;;;;;;;7.90;4.40;;;;;;;7.96;85.19;94508.22;5052488;28;20037;-64
2022/06/10 00:37:58;;;;;;;6.97;4.55;;;;;;;7.99;85.54;94505.50;5071384;28;20051;-58
2022/06/10 00:40:28;;;;;;;8.38;5.00;;;;;;;7.98;85.40;94503.16;5071811;28;20047;-57
2022/06/10 00:42:56;;;;;;;11.10;4.30;;;;;;;8.02;85.27;94503.19;5053467;28;20052;-63
2022/06/10 00:45:54;;;;;;;6.32;4.13;;;;;;;7.97;85.32;94496.13;5054472;28;20102;-58
2022/06/10 00:48:42;;;;;;;10.50;4.50;;;;;;;7.96;84.82;94503.53;5069986;28;20040;-57
2022/06/10 00:51:41;;;;;;;9.18;4.38;;;;;;;7.93;84.67;94498.06;5070332;28;21488;-63
2022/06/10 00:54:21;;;;;;;8.05;4.57;;;;;;;7.78;84.80;94499.94;5057284;28;20043;-59
2022/06/10 00:56:54;;;;;;;8.63;4.00;;;;;;;7.76;85.17;94496.81;5053274;28;20403;-57
2022/06/10 00:59:25;;;;;;;7.32;4.07;;;;;;;7.75;85.86;94500.72;5071479;28;20047;-63
2022/06/10 01:01:56;;;;;;;7.35;3.78;;;;;;;7.71;85.98;94491.72;5071125;28;20043;-58
2022/06/10 01:04:25;;;;;;;6.72;3.70;;;;;;;7.60;86.08;94502.56;5071272;28;20040;-58
2022/06/10 01:06:51;;;;;;;6.75;3.40;;;;;;;7.64;85.45;94508.06;5070941;28;20056;-58
2022/06/10 01:09:19;;;;;;;7.50;3.43;;;;;;;7.64;85.55;94495.19;5071499;28;20048;-58
2022/06/10 01:11:58;;;;;;;6.22;3.67;;;;;;;7.66;85.72;94489.34;5070876;28;20372;-59
2022/06/10 01:14:24;;;;;;;6.70;3.78;;;;;;;7.59;85.31;94496.34;5066572;28;20040;-58
2022/06/10 01:17:09;;;;;;;140.32;67.97;;;;;;;7.59;85.12;94499.06;5070721;28;20038;-59
2022/06/10 01:19:54;;;;;;;11.07;5.47;;;;;;;7.33;86.33;94491.91;5071162;28;20040;-59
2022/06/10 01:22:30;;;;;;;7.17;2.97;;;;;;;7.31;86.51;94490.72;5070156;28;20070;-59
2022/06/10 01:25:34;;;;;;;5.18;3.28;;;;;;;7.36;86.07;94493.06;5090773;28;20052;-58
2022/06/10 01:28:14;;;;;;;4.93;3.13;;;;;;;7.40;85.93;94502.88;5090573;28;21049;-58
2022/06/10 01:30:56;;;;;;;6.80;3.28;;;;;;;7.44;85.06;94497.41;5062999;28;20416;-63
2022/06/10 01:33:44;;;;;;;6.35;3.30;;;;;;;7.34;85.82;94501.63;5071864;28;20052;-58
2022/06/10 01:36:32;;;;;;;6.67;3.20;;;;;;;7.38;85.73;94496.19;5081851;28;20102;-59
2022/06/10 01:39:08;;;;;;;5.80;3.10;;;;;;;7.42;85.13;94502.47;5077776;28;20044;-59
2022/06/10 01:41:47;;;;;;;9.07;3.78;;;;;;;7.24;86.11;94505.09;5070827;28;20045;-61
2022/06/10 01:44:38;;;;;;;5.53;3.03;;;;;;;7.31;86.36;94499.69;5082911;28;20044;-61
2022/06/10 01:47:16;;;;;;;5.38;3.30;;;;;;;7.31;85.65;94507.09;5090622;28;20047;-58
2022/06/10 01:49:52;;;;;;;6.47;3.30;;;;;;;7.25;85.76;94497.69;5090440;28;20048;-56
2022/06/10 01:52:34;;;;;;;7.20;3.70;;;;;;;7.16;86.65;94508.94;5090818;28;20043;-58
2022/06/10 01:55:07;;;;;;;8.77;4.05;;;;;;;7.12;87.76;94510.84;5090561;28;20044;-59
2022/06/10 01:57:41;;;;;;;10.07;4.50;;;;;;;7.17;88.20;94505.81;5090799;28;20518;-58
2022/06/10 02:00:16;;;;;;;7.68;4.30;;;;;;;7.20;87.74;94509.72;5089912;28;20744;-62
2022/06/10 02:02:52;;;;;;;5.93;3.40;;;;;;;6.99;87.38;94511.16;5090379;28;20044;-58
2022/06/10 02:05:23;;;;;;;5.93;3.25;;;;;;;7.03;86.92;94511.19;5085862;28;20036;-58
2022/06/10 02:08:18;;;;;;;6.28;3.60;;;;;;;7.05;86.36;94514.31;5080984;28;20058;-62
2022/06/10 02:10:54;;;;;;;5.75;3.03;;;;;;;7.07;86.64;94516.69;5090196;28;20531;-57
2022/06/10 02:13:30;;;;;;;6.78;3.38;;;;;;;7.06;85.93;94515.88;5090689;28;20040;-58
2022/06/10 02:16:01;;;;;;;6.70;3.13;;;;;;;7.07;86.46;94516.69;5077377;28;20046;-58
2022/06/10 02:18:30;;;;;;;5.80;3.40;;;;;;;7.06;86.44;94518.59;5090356;28;20040;-58
2022/06/10 02:21:02;;;;;;;7.82;3.38;;;;;;;7.06;85.57;94517.81;5089804;28;20044;-58
2022/06/10 02:23:34;;;;;;;7.63;3.63;;;;;;;7.02;86.07;94523.25;5072571;28;20044;-58
2022/06/10 02:26:03;;;;;;;6.30;3.20;;;;;;;6.94;85.68;94525.16;5105770;28;20051;-59
2022/06/10 02:28:39;;;;;;;6.10;3.03;;;;;;;6.74;86.42;94524.59;5090428;28;20040;-58
2022/06/10 02:31:15;;;;;;;5.07;3.00;;;;;;;6.64;86.60;94527.19;5074062;28;20425;-66
2022/06/10 02:33:42;;;;;;;6.47;3.22;;;;;;;6.65;87.21;94528.78;5077551;28;20475;-58
2022/06/10 02:36:17;;;;;;;8.40;3.50;;;;;;;6.72;87.73;94537.81;5092575;28;20046;-64
2022/06/10 02:38:52;;;;;;;8.32;3.47;;;;;;;6.73;87.48;94528.47;5094207;28;20047;-57
2022/06/10 02:41:42;;;;;;;7.27;3.40;;;;;;;6.77;88.02;94537.47;5094535;28;20044;-58
2022/06/10 02:44:15;;;;;;;7.28;3.75;;;;;;;6.76;88.11;94535.09;5093662;28;20042;-58
2022/06/10 02:46:57;;;;;;;6.53;3.80;;;;;;;6.76;88.31;94537.81;5093789;28;20410;-56
2022/06/10 02:49:23;;;;;;;7.55;3.70;;;;;;;6.81;88.03;94542.97;5094124;28;20058;-58
2022/06/10 02:51:50;;;;;;;8.00;4.10;;;;;;;6.77;88.50;94542.91;5075793;28;20052;-59
2022/06/10 02:54:30;;;;;;;6.90;3.80;;;;;;;6.82;87.99;94543.72;5094308;28;20417;-61
2022/06/10 02:57:01;;;;;;;6.93;3.75;;;;;;;6.81;87.61;94540.22;5093518;28;20042;-58
2022/06/10 03:02:42;;;;;;;7.38;3.70;;;;;;;6.71;87.49;94552.59;5092972;28;20694;-58
2022/06/10 03:05:21;;;;;;;5.32;3.40;;;;;;;6.55;87.01;94554.78;5089561;28;20642;-58
2022/06/10 03:08:06;;;;;;;6.13;2.90;;;;;;;6.46;87.17;94563.28;5084624;28;20040;-58
2022/06/10 03:10:40;;;;;;;4.90;3.17;;;;;;;6.38;87.74;94554.22;5093625;28;20058;-59
2022/06/10 03:13:25;;;;;;;5.45;3.20;;;;;;;6.32;87.46;94558.44;5092918;28;20625;-58
2022/06/10 03:15:55;;;;;;;4.85;3.17;;;;;;;6.38;88.10;94562.41;5079906;28;20432;-58
2022/06/10 03:18:47;;;;;;;7.50;3.38;;;;;;;6.47;87.51;94558.59;5093508;28;20036;-61
2022/06/10 03:21:51;;;;;;;6.53;3.50;;;;;;;6.53;87.52;94562.56;5091453;28;20607;-58
2022/06/10 03:24:58;;;;;;;7.78;4.00;;;;;;;6.52;87.32;94564.50;5092756;28;20383;-61
2022/06/10 03:27:47;;;;;;;6.15;3.90;;;;;;;6.56;87.59;94572.69;5071964;28;20709;-58
2022/06/10 03:30:18;;;;;;;6.55;3.80;;;;;;;6.59;87.95;94571.97;5067978;28;20865;-58
2022/06/10 03:33:03;;;;;;;10.65;4.40;;;;;;;6.66;88.40;94574.78;5056309;28;20454;-58
2022/06/10 03:35:55;;;;;;;9.00;4.30;;;;;;;6.74;88.54;94564.69;5073243;28;20044;-63
2022/06/10 03:38:22;;;;;;;12.73;4.55;;;;;;;6.74;88.85;94570.97;5080371;28;20055;-61
2022/06/10 03:40:56;;;;;;;11.52;4.50;;;;;;;6.65;89.25;94573.19;5061728;28;20384;-63
2022/06/10 03:43:37;;;;;;;21.08;4.70;;;;;;;6.65;89.63;94573.19;5064369;28;20044;-59
2022/06/10 03:46:11;;;;;;;9.43;4.93;;;;;;;6.77;89.30;94567.47;5061411;28;20448;-59
2022/06/10 03:48:41;;;;;;;8.83;4.43;;;;;;;6.84;89.06;94574.97;5081697;28;20048;-58
2022/06/10 03:51:12;;;;;;;14.90;4.53;;;;;;;6.85;89.14;94575.72;5104693;28;20048;-58
2022/06/10 03:53:38;;;;;;;11.48;4.63;;;;;;;6.71;89.63;94574.44;5072985;28;20047;-61
2022/06/10 03:56:09;;;;;;;11.68;5.03;;;;;;;6.74;89.85;94579.16;5070682;28;20654;-64
2022/06/10 03:58:36;;;;;;;40.67;5.28;;;;;;;6.82;89.59;94576.47;5072467;28;20054;-59
2022/06/10 04:01:04;;;;;;;9.17;4.37;;;;;;;6.79;89.61;94578.78;5072408;28;20044;-58
2022/06/10 04:03:31;;;;;;;10.27;4.95;;;;;;;6.94;88.72;94578.91;5072106;28;20380;-56
2022/06/10 04:05:58;;;;;;;15.65;5.07;;;;;;;6.97;88.40;94580.91;5082756;28;20044;-58
2022/06/10 04:08:45;;;;;;;24.77;4.60;;;;;;;6.68;88.43;94582.56;5092192;28;20047;-58
2022/06/10 04:11:11;;;;;;;10.10;4.60;;;;;;;6.69;88.84;94579.47;5092501;28;20058;-59
2022/06/10 04:13:38;;;;;;;11.63;4.47;;;;;;;6.90;88.81;94578.09;5092504;28;20379;-58
2022/06/10 04:16:05;;;;;;;13.23;5.10;;;;;;;7.00;87.78;94580.94;5084363;28;20036;-61
2022/06/10 04:18:32;;;;;;;10.30;4.90;;;;;;;7.11;87.66;94583.75;5059347;28;20445;-64
2022/06/10 04:20:59;;;;;;;7.90;4.50;;;;;;;7.01;87.48;94584.47;5088481;28;20032;-62
2022/06/10 04:23:25;;;;;;;10.93;4.70;;;;;;;7.12;87.16;94581.81;5072135;28;20048;-58
2022/06/10 04:25:52;;;;;;;8.60;4.90;;;;;;;7.28;86.99;94581.56;5053584;28;20041;-59
2022/06/10 04:28:19;;;;;;;7.93;4.50;;;;;;;8.32;84.55;94580.22;5071995;28;20415;-63
2022/06/10 04:30:49;;;;;;;9.80;5.03;;;;;;;10.45;77.79;94570.09;5058448;28;20045;-61
2022/06/10 04:33:16;;;;;;;7.82;4.60;;;;;;;10.53;71.89;94569.66;5056722;28;20078;-58
2022/06/10 04:35:45;;;;;;;15.63;4.90;;;;;;;9.76;72.71;94573.00;5071646;28;20061;-61
2022/06/10 04:38:14;;;;;;;23.07;4.70;;;;;;;9.03;76.09;94583.56;5071891;28;20051;-62
2022/06/10 04:40:41;;;;;;;16.10;4.50;;;;;;;9.10;76.36;94580.88;5071795;28;20113;-57
2022/06/10 04:43:09;;;;;;;10.65;4.30;;;;;;;9.23;76.53;94586.72;5078629;28;20623;-61
2022/06/10 04:45:40;;;;;;;6.93;4.40;;;;;;;9.21;76.57;94589.84;5071646;28;20208;-59
2022/06/10 04:48:11;;;;;;;6.95;3.95;;;;;;;9.14;76.85;94595.34;5090717;28;20418;-62
2022/06/10 04:50:38;;;;;;;8.47;4.00;;;;;;;8.46;78.52;94590.47;5075489;28;20667;-63
2022/06/10 04:53:05;;;;;;;7.50;4.10;;;;;;;8.20;79.65;94592.28;5070816;28;20071;-62
2022/06/10 04:55:32;;;;;;;7.25;4.30;;;;;;;8.47;79.30;94588.50;5071470;28;20040;-58
2022/06/10 04:57:59;;;;;;;7.70;4.18;;;;;;;8.39;80.43;94596.69;5052336;28;20496;-63
2022/06/10 05:00:32;;;;;;;6.63;4.30;;;;;;;8.38;80.85;94594.31;5051442;28;20048;-59
2022/06/10 05:03:02;;;;;;;6.97;3.70;;;;;;;8.06;81.42;94596.91;5070751;28;20040;-58
2022/06/10 05:05:29;;;;;;;7.88;4.30;;;;;;;7.94;83.32;94608.94;5051092;28;20158;-57
2022/06/10 05:07:57;;;;;;;7.80;4.80;;;;;;;8.08;82.95;94598.09;5079563;28;20075;-58
2022/06/10 05:10:25;;;;;;;11.07;5.43;;;;;;;8.16;83.09;94607.13;5070838;28;20423;-58
2022/06/10 05:12:52;;;;;;;10.73;6.05;;;;;;;8.44;82.33;94601.03;5070474;28;20407;-61
2022/06/10 05:15:20;;;;;;;10.40;6.20;;;;;;;8.92;80.73;94600.78;5065297;28;20053;-59
2022/06/10 05:17:48;;;;;;;8.70;5.28;;;;;;;10.61;75.03;94600.59;5081631;28;20383;-62
2022/06/10 05:20:19;;;;;;;8.50;5.47;;;;;;;13.09;65.08;94601.91;5071184;28;20048;-60
2022/06/10 05:22:46;;;;;;;7.65;5.25;;;;;;;15.06;59.09;94603.25;5070203;28;20040;-59
2022/06/10 05:25:13;;;;;;;6.57;4.20;;;;;;;17.46;53.13;94590.69;5053413;28;20062;-60
2022/06/10 05:27:40;;;;;;;5.87;4.07;;;;;;;18.95;49.03;94596.47;5070802;28;20056;-59
2022/06/10 05:30:09;;;;;;;6.43;4.05;;;;;;;19.45;46.83;94591.78;5081766;28;21684;-56
2022/06/10 05:32:36;;;;;;;6.10;3.55;;;;;;;19.44;45.41;94592.28;5060179;28;20413;-57
2022/06/10 05:35:03;;;;;;;5.93;3.08;;;;;;;19.39;45.01;94598.41;5087612;28;20062;-56
2022/06/10 05:37:30;;;;;;;4.35;3.10;;;;;;;18.94;46.32;94598.47;5072564;28;20048;-57
2022/06/10 05:39:57;;;;;;;5.50;3.10;;;;;;;19.07;46.36;94592.81;5090357;28;20150;-57
2022/06/10 05:42:24;;;;;;;5.93;3.00;;;;;;;20.11;44.24;94594.38;5090434;28;20067;-57
2022/06/10 05:44:52;;;;;;;4.78;3.10;;;;;;;21.08;41.68;94592.25;5089787;28;20036;-59
2022/06/10 05:47:22;;;;;;;4.32;2.90;;;;;;;22.40;39.71;94592.81;5090888;28;20044;-57
2022/06/10 05:49:52;;;;;;;4.60;2.80;;;;;;;22.24;39.33;94594.78;5090106;28;20046;-58
2022/06/10 05:52:25;;;;;;;7.40;3.20;;;;;;;23.14;38.40;94609.81;5090771;28;20044;-58
2022/06/10 05:54:54;;;;;;;5.35;3.13;;;;;;;22.72;38.78;94594.75;5090079;28;20055;-61
2022/06/10 05:57:21;;;;;;;5.75;3.30;;;;;;;24.02;36.12;94602.59;5090428;28;20050;-59
2022/06/10 05:59:49;;;;;;;5.60;2.75;;;;;;;25.44;34.18;94597.44;5089831;28;20550;-57
2022/06/10 06:02:17;;;;;;;4.45;2.70;;;;;;;26.57;31.55;94603.88;5090491;28;20047;-57
2022/06/10 06:04:43;;;;;;;4.27;2.60;;;;;;;26.53;31.90;94600.53;5089766;28;20056;-56
2022/06/10 06:07:25;;;;;;;4.10;2.40;;;;;;;26.14;32.39;94600.31;5070519;28;20075;-57
2022/06/10 06:09:53;;;;;;;5.13;2.50;;;;;;;26.91;31.83;94601.22;5076297;28;20119;-59
2022/06/10 06:12:21;;;;;;;4.68;2.55;;;;;;;24.87;34.02;94609.34;5090445;28;20051;-56
2022/06/10 06:14:49;;;;;;;4.80;2.50;;;;;;;26.18;32.71;94607.25;5088501;28;20050;-57
2022/06/10 06:17:19;;;;;;;6.43;2.60;;;;;;;26.83;31.08;94614.25;5090468;28;20043;-57
2022/06/10 06:19:47;;;;;;;4.18;2.22;;;;;;;27.49;30.11;94614.97;5089751;28;20044;-58
2022/06/10 06:22:15;;;;;;;5.53;2.40;;;;;;;26.04;32.51;94611.75;5090156;28;20050;-61
2022/06/10 06:24:42;;;;;;;4.43;2.33;;;;;;;24.66;35.03;94620.59;5089668;28;20048;-52
2022/06/10 06:27:16;;;;;;;5.00;2.20;;;;;;;26.76;32.41;94609.09;5090128;28;20040;-57
2022/06/10 06:29:44;;;;;;;5.03;2.00;;;;;;;28.02;30.43;94613.22;5089917;28;20036;-62
2022/06/10 06:32:11;;;;;;;4.93;2.20;;;;;;;27.83;30.14;94612.94;5090119;28;20070;-58
2022/06/10 06:34:38;;;;;;;4.53;2.20;;;;;;;27.95;30.01;94618.59;5090399;28;20459;-57
2022/06/10 06:37:10;;;;;;;5.10;2.30;;;;;;;29.04;28.67;94604.50;5089267;28;20074;-65
2022/06/10 06:39:37;;;;;;;4.22;2.15;;;;;;;30.67;26.62;94606.09;5090129;28;20044;-57
2022/06/10 06:42:04;;;;;;;4.20;1.87;;;;;;;30.38;26.65;94604.84;5089458;28;20383;-57
2022/06/10 06:44:31;;;;;;;3.97;1.90;;;;;;;29.01;28.48;94600.63;5090223;28;20052;-57
2022/06/10 06:46:58;;;;;;;5.05;2.30;;;;;;;28.37;30.09;94605.47;5089495;28;20054;-56
2022/06/10 06:49:28;;;;;;;4.47;2.10;;;;;;;28.41;29.42;94600.31;5090202;28;20044;-57
2022/06/10 06:51:56;;;;;;;7.10;2.30;;;;;;;27.21;31.76;94609.25;5089494;28;20058;-56
2022/06/10 06:54:24;;;;;;;5.03;2.03;;;;;;;29.13;29.20;94601.38;5089989;28;20399;-57
2022/06/10 06:56:51;;;;;;;5.82;2.10;;;;;;;29.79;28.60;94603.56;5089383;28;20048;-57
2022/06/10 06:59:17;;;;;;;6.07;2.35;;;;;;;29.70;28.36;94606.69;5089843;28;20492;-60
2022/06/10 07:01:44;;;;;;;5.15;2.30;;;;;;;27.45;31.58;94606.00;5089517;28;20048;-58
2022/06/10 07:04:11;;;;;;;5.53;2.22;;;;;;;28.50;30.05;94600.09;5089493;28;20032;-63
2022/06/10 07:06:44;;;;;;;6.00;2.37;;;;;;;30.12;27.79;94602.50;5073968;28;20075;-57
2022/06/10 07:09:11;;;;;;;5.95;2.20;;;;;;;29.97;27.13;94602.13;5069818;28;20515;-60
2022/06/10 07:11:38;;;;;;;5.20;2.33;;;;;;;30.69;26.72;94599.09;5089531;28;20046;-63
2022/06/10 07:14:10;;;;;;;5.50;2.08;;;;;;;29.86;27.09;94600.16;5064717;28;20619;-57
2022/06/10 07:16:37;;;;;;;5.30;2.08;;;;;;;28.02;28.78;94599.09;5077823;28;20048;-58
2022/06/10 07:19:04;;;;;;;5.13;2.13;;;;;;;27.93;29.70;94607.06;5089189;28;20105;-57
2022/06/10 07:21:31;;;;;;;7.13;2.50;;;;;;;26.13;32.40;94605.16;5090681;28;20048;-57
2022/06/10 07:23:58;;;;;;;4.15;2.13;;;;;;;28.63;28.35;94605.16;5082983;28;20045;-58
2022/06/10 07:26:25;;;;;;;5.63;2.05;;;;;;;30.31;26.83;94605.44;5073096;28;20045;-57
2022/06/10 07:28:52;;;;;;;4.40;1.80;;;;;;;32.93;23.11;94599.78;5072710;28;20044;-56
2022/06/10 07:31:19;;;;;;;4.97;1.80;;;;;;;30.36;25.99;94604.59;5072981;28;20438;-59
2022/06/10 07:33:46;;;;;;;4.55;1.70;;;;;;;29.80;27.04;94607.91;5072230;28;20056;-59
2022/06/10 07:36:13;;;;;;;5.95;1.75;;;;;;;31.89;24.62;94597.75;5073236;28;20441;-60
2022/06/10 07:38:40;;;;;;;5.00;1.90;;;;;;;29.85;26.46;94598.63;5072892;28;20055;-58
2022/06/10 07:43:52;;;;;;;9.23;2.07;;;;;;;27.91;29.87;94601.16;5090463;28;20046;-56
2022/06/10 07:46:22;;;;;;;5.68;2.00;;;;;;;30.36;27.27;94592.50;5093028;28;20494;-56
2022/06/10 07:48:49;;;;;;;5.55;2.08;;;;;;;32.14;24.66;94591.97;5092181;28;20044;-56
2022/06/10 07:51:17;;;;;;;4.93;1.95;;;;;;;33.77;21.88;94585.84;5075076;28;20052;-59
2022/06/10 07:53:45;;;;;;;4.90;1.80;;;;;;;34.69;18.36;94594.44;5092330;28;20044;-57
2022/06/10 07:56:13;;;;;;;4.23;1.60;;;;;;;34.55;18.73;94585.19;5074904;28;20040;-63
2022/06/10 07:58:41;;;;;;;3.33;1.50;;;;;;;35.11;18.47;94590.66;5092546;28;20048;-58
2022/06/10 08:01:07;;;;;;;4.72;1.50;;;;;;;30.56;21.58;94586.38;5092126;28;20520;-59
2022/06/10 08:03:34;;;;;;;5.10;1.40;;;;;;;31.74;20.52;94592.59;5092437;28;20036;-59
2022/06/10 08:06:02;;;;;;;4.32;1.33;;;;;;;33.94;18.58;94582.56;5073611;28;20053;-58
2022/06/10 08:08:29;;;;;;;4.00;2.00;;;;;;;34.91;17.72;94587.31;5058580;28;20509;-57
2022/06/10 08:10:57;;;;;;;5.60;1.67;;;;;;;33.74;18.76;94586.19;5071552;28;20437;-57
2022/06/10 08:13:25;;;;;;;4.45;1.38;;;;;;;31.59;19.63;94590.25;5072277;28;20052;-57
2022/06/10 08:15:55;;;;;;;3.75;1.15;;;;;;;32.75;18.92;94590.06;5069237;28;20075;-64
2022/06/10 08:18:22;;;;;;;3.78;1.20;;;;;;;29.96;20.41;94584.38;5086650;28;20458;-57
2022/06/10 08:23:37;;;;;;;3.92;1.30;;;;;;;24.00;27.67;94581.91;5092175;28;20121;-60
2022/06/10 08:26:06;;;;;;;4.40;1.30;;;;;;;26.92;24.64;94585.84;5080508;28;20040;-57
2022/06/10 08:28:35;;;;;;;3.10;1.35;;;;;;;29.01;22.38;94580.84;5072201;28;20404;-57
2022/06/10 08:31:03;;;;;;;3.63;1.30;;;;;;;29.35;21.20;94572.22;5071685;28;20052;-56
2022/06/10 08:33:30;;;;;;;3.37;1.10;;;;;;;31.51;19.60;94577.22;5053258;28;20044;-57
2022/06/10 08:35:59;;;;;;;4.55;1.25;;;;;;;30.25;20.69;94576.38;5071270;28;20071;-62
2022/06/10 08:38:26;;;;;;;3.83;1.20;;;;;;;27.41;23.47;94586.53;5071775;28;20388;-60
2022/06/10 08:41:03;;;;;;;5.53;1.40;;;;;;;27.42;22.40;94578.81;5071070;28;20040;-57
2022/06/10 08:43:47;;;;;;;3.53;1.20;;;;;;;31.32;19.26;94566.63;5071639;28;20074;-60
2022/06/10 08:47:08;;;;;;;3.20;1.10;;;;;;;28.44;21.34;94573.88;5083733;28;20770;-61
2022/06/10 08:49:53;;;;;;;3.42;1.20;;;;;;;28.77;23.20;94575.06;4996985;28;20907;-57
2022/06/10 08:52:44;;;;;;;4.03;1.20;;;;;;;29.76;22.05;94573.47;5002194;28;20137;-57
2022/06/10 08:55:42;;;;;;;5.07;1.40;;;;;;;28.84;22.53;94569.66;5063560;28;20744;-56
2022/06/10 08:58:33;;;;;;;4.72;1.20;;;;;;;32.19;18.74;94566.28;5082723;28;20754;-57
2022/06/10 09:01:05;;;;;;;14.87;4.47;;;;;;;33.79;18.77;94571.06;5075922;28;20051;-61
2022/06/10 09:03:50;;;;;;;6.32;1.88;;;;;;;32.91;19.23;94567.53;5071235;28;20049;-56
2022/06/10 09:06:24;;;;;;;4.15;1.63;;;;;;;35.17;17.60;94568.44;5070355;28;20049;-59
2022/06/10 09:08:55;;;;;;;4.40;1.23;;;;;;;31.44;19.73;94581.41;5052890;28;20048;-60
2022/06/10 09:11:48;;;;;;;3.10;1.00;;;;;;;28.32;21.71;94583.69;5053553;28;20051;-60
2022/06/10 09:14:23;;;;;;;3.70;1.30;;;;;;;28.35;23.33;94588.28;5067182;28;20202;-59
2022/06/10 09:17:09;;;;;;;3.53;1.30;;;;;;;30.99;21.62;94579.22;5088595;28;20070;-57
2022/06/10 09:19:58;;;;;;;3.70;1.27;;;;;;;29.17;22.05;94584.16;5082703;28;20519;-57
2022/06/10 09:22:51;;;;;;;5.22;1.30;;;;;;;31.92;20.46;94584.56;5090548;28;20063;-57
2022/06/10 09:25:37;;;;;;;3.70;1.30;;;;;;;32.33;19.45;94592.66;5057714;28;20049;-59
2022/06/10 09:28:05;;;;;;;3.20;1.20;;;;;;;34.30;18.12;94584.81;5059852;28;20095;-58
2022/06/10 09:30:56;;;;;;;3.38;1.20;;;;;;;35.32;16.49;94579.19;5070806;28;20053;-61
2022/06/10 09:34:09;;;;;;;3.92;1.27;;;;;;;34.67;17.21;94582.84;5069746;28;20620;-57
2022/06/10 09:36:46;;;;;;;3.22;1.15;;;;;;;32.78;19.05;94599.56;5073624;28;20411;-57
2022/06/10 09:42:17;;;;;;;3.30;1.27;;;;;;;32.10;19.62;94583.00;5056222;28;20054;-59
2022/06/10 09:44:51;;;;;;;4.18;1.25;;;;;;;30.92;21.39;94583.41;5069974;28;20055;-59
2022/06/10 09:47:45;;;;;;;3.75;1.40;;;;;;;30.49;21.59;94574.88;5070464;28;20048;-58
2022/06/10 09:50:25;;;;;;;6.28;1.40;;;;;;;30.19;22.27;94582.09;5077999;28;20044;-58
2022/06/10 09:53:26;;;;;;;3.58;1.40;;;;;;;27.67;24.45;94588.34;5086501;28;20046;-57
2022/06/10 09:55:58;;;;;;;3.73;1.20;;;;;;;29.13;23.23;94587.25;5069945;28;20046;-58
2022/06/10 09:58:37;;;;;;;3.28;1.40;;;;;;;29.42;23.12;94574.50;5070062;28;20483;-58
2022/06/10 10:01:22;;;;;;;5.28;1.30;;;;;;;28.46;24.69;94576.97;5069727;28;20045;-58
2022/06/10 10:04:24;;;;;;;3.88;1.50;;;;;;;25.79;27.88;94584.44;5069269;28;20051;-58
2022/06/10 10:06:54;;;;;;;4.00;1.30;;;;;;;25.81;27.59;94574.22;5067536;28;20046;-61
2022/06/10 10:09:23;;;;;;;3.80;1.40;;;;;;;25.64;28.56;94584.59;5076628;28;20412;-61
2022/06/10 10:12:08;;;;;;;3.08;1.60;;;;;;;26.05;27.54;94585.16;5069163;28;20040;-64
2022/06/10 10:14:46;;;;;;;4.35;1.75;;;;;;;27.25;26.64;94578.81;5063483;28;20052;-61
2022/06/10 10:17:58;;;;;;;3.45;1.20;;;;;;;26.39;25.51;94579.75;5081837;28;20225;-59
2022/06/10 10:20:56;;;;;;;3.80;1.52;;;;;;;27.95;24.81;94573.47;4992818;28;21475;-58
2022/06/10 10:23:36;;;;;;;3.00;1.20;;;;;;;25.98;26.01;94577.22;5079327;28;21273;-59
2022/06/10 10:26:34;;;;;;;4.10;1.30;;;;;;;29.20;22.53;94566.91;5050092;28;20043;-66
2022/06/10 10:29:11;;;;;;;4.45;1.40;;;;;;;31.35;20.64;94564.78;5068024;28;20487;-58
2022/06/10 10:31:44;;;;;;;3.40;1.20;;;;;;;32.52;19.74;94578.38;5069747;28;20071;-62
2022/06/10 10:34:19;;;;;;;4.18;1.30;;;;;;;30.90;20.54;94571.84;5067967;28;20556;-58
2022/06/10 10:36:59;;;;;;;3.53;1.30;;;;;;;29.40;22.45;94568.59;5072312;28;20048;-59
2022/06/10 10:39:33;;;;;;;4.28;1.25;;;;;;;28.66;23.97;94565.34;5069854;28;20063;-56
2022/06/10 10:42:13;;;;;;;4.68;1.30;;;;;;;28.21;24.01;94568.31;5068999;28;20488;-58
2022/06/10 10:44:47;;;;;;;4.90;1.50;;;;;;;24.82;28.55;94573.56;5069731;28;20418;-58
2022/06/10 10:47:18;;;;;;;3.72;1.50;;;;;;;24.69;29.80;94563.47;5073494;28;21614;-58
2022/06/10 10:49:50;;;;;;;3.13;1.30;;;;;;;26.29;26.99;94570.72;5080652;28;20045;-58
2022/06/10 10:52:32;;;;;;;3.97;1.70;;;;;;;25.70;28.87;94565.72;5069855;28;20052;-63
2022/06/10 10:55:04;;;;;;;5.85;1.60;;;;;;;25.19;30.18;94562.44;5069224;28;20052;-64
2022/06/10 10:57:36;;;;;;;5.05;1.65;;;;;;;25.35;29.76;94563.91;5072483;28;20044;-58
2022/06/10 11:00:15;;;;;;;4.35;1.60;;;;;;;24.71;30.14;94560.19;5055606;28;20413;-61
2022/06/10 11:02:57;;;;;;;5.77;1.77;;;;;;;23.42;32.64;94559.09;5073083;28;20051;-61
2022/06/10 11:05:23;;;;;;;4.65;1.80;;;;;;;24.67;31.21;94559.59;5068359;28;20055;-57
2022/06/10 11:08:16;;;;;;;3.80;1.60;;;;;;;25.15;30.23;94558.31;5083123;28;20063;-64
2022/06/10 11:11:25;;;;;;;3.95;1.63;;;;;;;25.20;30.12;94566.03;5062231;28;20044;-58
2022/06/10 11:14:04;;;;;;;3.15;1.48;;;;;;;24.75;30.33;94560.75;5070700;28;20045;-60
2022/06/10 11:16:41;;;;;;;4.17;1.67;;;;;;;24.70;31.06;94561.44;5083420;28;20044;-58
2022/06/10 11:19:25;;;;;;;4.25;1.55;;;;;;;24.37;31.31;94561.75;5084710;28;21708;-57
2022/06/10 11:22:08;;;;;;;3.60;1.80;;;;;;;24.33;31.83;94567.59;5090225;28;20481;-59
2022/06/10 11:24:41;;;;;;;5.07;1.80;;;;;;;23.69;32.64;94558.78;5084908;28;20047;-58
2022/06/10 11:27:21;;;;;;;4.05;1.70;;;;;;;23.63;32.29;94554.34;5092573;28;20362;-59
2022/06/10 11:30:13;;;;;;;4.43;1.90;;;;;;;23.52;32.24;94563.31;5093327;28;20048;-58
2022/06/10 11:32:43;;;;;;;3.78;1.60;;;;;;;23.93;31.32;94560.69;5083501;28;20049;-58
2022/06/10 11:35:19;;;;;;;4.32;1.58;;;;;;;23.32;32.43;94559.22;5071945;28;20700;-59
2022/06/10 11:37:59;;;;;;;4.57;1.80;;;;;;;23.71;32.21;94567.47;5072354;28;20055;-64
2022/06/10 11:40:34;;;;;;;4.28;1.60;;;;;;;23.84;32.20;94550.34;5072687;28;20051;-58
2022/06/10 11:43:08;;;;;;;3.73;1.60;;;;;;;24.15;31.77;94551.03;5072578;28;20122;-59
2022/06/10 11:45:41;;;;;;;3.33;1.40;;;;;;;24.35;31.29;94545.44;5072614;28;20483;-58
2022/06/10 11:48:18;;;;;;;2.97;1.55;;;;;;;24.52;30.97;94560.47;5072378;28;20045;-59
2022/06/10 11:51:00;;;;;;;3.40;1.60;;;;;;;24.70;30.09;94553.00;5072531;28;20101;-59
2022/06/10 11:53:30;;;;;;;3.58;1.50;;;;;;;24.52;30.73;94545.66;5072771;28;20049;-58
2022/06/10 12:01:42;;;;;;;3.22;1.52;;;;;;;24.43;30.71;94545.78;5051505;28;20041;-63
2022/06/10 12:04:19;;;;;;;4.00;1.73;;;;;;;23.84;31.66;94550.34;5086764;27;20591;-58
2022/06/10 12:06:51;;;;;;;3.40;1.70;;;;;;;24.20;31.05;94539.88;5084332;28;20044;-58
2022/06/10 12:09:21;;;;;;;3.37;1.50;;;;;;;24.12;30.99;94544.38;5078381;28;20056;-57
2022/06/10 12:12:29;;;;;;;4.47;1.60;;;;;;;23.98;30.61;94540.34;5058239;28;20041;-63
2022/06/10 12:14:59;;;;;;;5.15;1.60;;;;;;;24.21;30.84;94540.69;5064115;28;20102;-61
2022/06/10 12:17:39;;;;;;;4.40;1.80;;;;;;;23.95;31.10;94534.97;5072134;28;20049;-58
2022/06/10 12:20:16;;;;;;;3.45;1.65;;;;;;;24.28;30.23;94543.03;5071756;28;20048;-57
2022/06/10 12:22:43;;;;;;;4.20;1.60;;;;;;;24.48;30.34;94529.00;5071565;28;20049;-58
2022/06/10 12:25:32;;;;;;;5.65;1.90;;;;;;;23.40;31.53;94537.19;5072041;28;20040;-58
2022/06/10 12:28:08;;;;;;;4.10;1.88;;;;;;;22.95;32.39;94547.59;5071787;28;20422;-57